createdAt,value
2023-05-15T00:00:50.917Z,20.90
2023-05-15T00:01:53.159Z,21.00
2023-05-15T00:02:57.281Z,21.00
2023-05-15T00:04:00.049Z,21.00
2023-05-15T00:05:05.145Z,21.00
2023-05-15T00:06:07.570Z,21.00
2023-05-15T00:07:10.294Z,21.00
2023-05-15T00:08:12.505Z,21.00
2023-05-15T00:09:14.937Z,21.00
2023-05-15T00:10:17.521Z,21.00
2023-05-15T00:11:21.386Z,21.00
2023-05-15T00:12:25.185Z,21.00
2023-05-15T00:13:27.390Z,21.00
2023-05-15T00:14:29.695Z,21.00
2023-05-15T00:15:32.362Z,21.00
2023-05-15T00:16:34.903Z,21.00
2023-05-15T00:17:38.398Z,21.00
2023-05-15T00:18:40.720Z,21.00
2023-05-15T00:19:43.462Z,21.00
2023-05-15T00:20:45.695Z,21.00
2023-05-15T00:21:48.433Z,21.00
2023-05-15T00:22:51.310Z,21.00
2023-05-15T00:23:54.085Z,21.00
2023-05-15T00:24:59.532Z,21.00
2023-05-15T00:26:01.817Z,21.00
2023-05-15T00:27:04.400Z,21.00
2023-05-15T00:28:06.997Z,21.00
2023-05-15T00:29:09.233Z,21.00
2023-05-15T00:30:13.430Z,21.00
2023-05-15T00:31:15.740Z,21.00
2023-05-15T00:32:18.984Z,21.00
2023-05-15T00:33:21.209Z,21.00
2023-05-15T00:34:26.007Z,21.00
2023-05-15T00:35:28.375Z,21.00
2023-05-15T00:36:31.785Z,21.00
2023-05-15T00:37:34.038Z,21.00
2023-05-15T00:38:36.296Z,21.00
2023-05-15T00:39:39.085Z,21.00
2023-05-15T00:40:42.142Z,21.00
2023-05-15T00:41:45.609Z,21.00
2023-05-15T00:42:48.240Z,21.00
2023-05-15T00:43:53.110Z,21.00
2023-05-15T00:44:56.953Z,21.00
2023-05-15T00:45:59.447Z,21.00
2023-05-15T00:47:02.386Z,21.00
2023-05-15T00:48:05.782Z,21.00
2023-05-15T00:49:13.392Z,21.00
2023-05-15T00:50:16.175Z,21.00
2023-05-15T00:51:20.025Z,21.00
2023-05-15T00:52:23.055Z,21.00
2023-05-15T00:53:26.678Z,21.00
2023-05-15T00:54:29.363Z,21.00
2023-05-15T00:55:33.555Z,21.00
2023-05-15T00:56:36.347Z,21.00
2023-05-15T00:57:39.493Z,21.00
2023-05-15T00:58:41.933Z,21.00
2023-05-15T00:59:45.476Z,21.00
2023-05-15T01:00:48.258Z,21.00
2023-05-15T01:01:52.515Z,21.00
2023-05-15T01:02:54.926Z,21.00
2023-05-15T01:03:57.312Z,21.00
2023-05-15T01:04:59.567Z,21.00
2023-05-15T01:06:02.038Z,21.00
2023-05-15T01:07:04.615Z,21.00
2023-05-15T01:08:13.771Z,21.00
2023-05-15T01:09:17.252Z,20.90
2023-05-15T01:10:20.085Z,20.90
2023-05-15T01:11:24.566Z,21.00
2023-05-15T01:12:30.503Z,21.00
2023-05-15T01:13:32.750Z,21.00
2023-05-15T01:14:36.067Z,21.00
2023-05-15T01:15:39.452Z,20.90
2023-05-15T01:16:42.287Z,21.00
2023-05-15T01:17:45.025Z,20.90
2023-05-15T01:18:47.479Z,21.00
2023-05-15T01:19:51.001Z,21.00
2023-05-15T01:21:16.583Z,21.00
2023-05-15T01:22:37.225Z,21.00
2023-05-15T01:24:03.097Z,21.00
2023-05-15T01:25:19.936Z,21.00
2023-05-15T01:26:34.652Z,21.00
2023-05-15T01:27:39.612Z,21.00
2023-05-15T01:28:44.108Z,21.00
2023-05-15T01:30:00.469Z,21.00
2023-05-15T01:31:06.327Z,21.00
2023-05-15T01:32:24.058Z,21.00
2023-05-15T01:33:31.199Z,21.00
2023-05-15T01:34:52.523Z,21.00
2023-05-15T01:36:08.124Z,21.00
2023-05-15T01:37:13.046Z,21.00
2023-05-15T01:38:18.069Z,21.00
2023-05-15T01:39:23.925Z,21.00
2023-05-15T01:40:27.970Z,21.00
2023-05-15T01:41:35.061Z,21.00
2023-05-15T01:42:38.719Z,21.00
2023-05-15T01:43:45.516Z,21.00
2023-05-15T01:44:52.832Z,21.00
2023-05-15T01:45:56.904Z,21.00
2023-05-15T01:47:00.099Z,21.00
2023-05-15T01:48:07.527Z,21.00
2023-05-15T01:49:10.912Z,21.00
2023-05-15T01:50:15.358Z,20.90
2023-05-15T01:51:18.909Z,21.00
2023-05-15T01:52:25.355Z,21.00
2023-05-15T01:53:30.070Z,21.00
2023-05-15T01:54:33.799Z,21.00
2023-05-15T01:55:37.603Z,21.00
2023-05-15T01:56:41.640Z,20.90
2023-05-15T01:57:45.530Z,21.00
2023-05-15T01:58:49.415Z,21.00
2023-05-15T01:59:52.058Z,21.00
2023-05-15T02:00:56.452Z,21.00
2023-05-15T02:01:58.906Z,21.00
2023-05-15T02:03:02.224Z,20.90
2023-05-15T02:04:05.481Z,21.00
2023-05-15T02:05:08.070Z,21.00
2023-05-15T02:06:10.457Z,21.00
2023-05-15T02:07:13.269Z,21.00
2023-05-15T02:08:16.780Z,21.00
2023-05-15T02:09:20.552Z,21.00
2023-05-15T02:10:22.973Z,20.90
2023-05-15T02:11:25.200Z,21.00
2023-05-15T02:12:28.269Z,21.00
2023-05-15T02:13:31.877Z,21.00
2023-05-15T02:14:34.972Z,21.00
2023-05-15T02:15:37.515Z,21.00
2023-05-15T02:16:39.952Z,21.00
2023-05-15T02:17:42.915Z,21.00
2023-05-15T02:18:46.692Z,21.00
2023-05-15T02:19:50.642Z,21.00
2023-05-15T02:20:54.777Z,21.00
2023-05-15T02:21:59.556Z,20.90
2023-05-15T02:23:01.888Z,21.00
2023-05-15T02:24:06.640Z,21.00
2023-05-15T02:25:09.029Z,21.00
2023-05-15T02:26:12.123Z,21.00
2023-05-15T02:27:17.236Z,21.00
2023-05-15T02:28:30.913Z,21.00
2023-05-15T02:29:36.354Z,21.00
2023-05-15T02:30:42.445Z,21.00
2023-05-15T02:32:12.363Z,20.90
2023-05-15T02:33:20.081Z,21.00
2023-05-15T02:34:26.660Z,21.00
2023-05-15T02:35:36.235Z,20.90
2023-05-15T02:36:41.397Z,20.90
2023-05-15T02:37:46.426Z,21.00
2023-05-15T02:38:50.529Z,21.00
2023-05-15T02:39:54.579Z,21.00
2023-05-15T02:40:57.890Z,21.00
2023-05-15T02:42:01.439Z,21.00
2023-05-15T02:43:04.246Z,21.00
2023-05-15T02:44:07.437Z,21.00
2023-05-15T02:45:10.500Z,21.00
2023-05-15T02:46:13.354Z,21.00
2023-05-15T02:47:16.636Z,21.00
2023-05-15T02:48:19.058Z,21.00
2023-05-15T02:49:22.462Z,21.00
2023-05-15T02:50:24.676Z,21.00
2023-05-15T02:51:27.209Z,21.00
2023-05-15T02:52:29.793Z,21.00
2023-05-15T02:53:32.641Z,21.00
2023-05-15T02:54:34.835Z,21.00
2023-05-15T02:55:38.064Z,21.00
2023-05-15T02:56:40.744Z,21.00
2023-05-15T02:57:43.023Z,21.00
2023-05-15T02:58:45.367Z,21.00
2023-05-15T02:59:47.664Z,21.00
2023-05-15T03:00:50.438Z,21.00
2023-05-15T03:01:52.753Z,21.00
2023-05-15T03:02:56.451Z,21.00
2023-05-15T03:03:58.810Z,21.00
2023-05-15T03:05:01.415Z,21.00
2023-05-15T03:06:03.808Z,20.90
2023-05-15T03:07:06.236Z,21.00
2023-05-15T03:08:08.557Z,21.00
2023-05-15T03:09:10.905Z,20.90
2023-05-15T03:10:13.161Z,20.90
2023-05-15T03:11:17.296Z,21.00
2023-05-15T03:12:19.579Z,21.00
2023-05-15T03:13:21.852Z,21.00
2023-05-15T03:14:25.712Z,21.00
2023-05-15T03:15:28.001Z,21.00
2023-05-15T03:16:30.547Z,21.00
2023-05-15T03:17:33.145Z,21.00
2023-05-15T03:18:36.641Z,20.90
2023-05-15T03:19:38.943Z,20.90
2023-05-15T03:20:41.260Z,21.00
2023-05-15T03:21:43.860Z,21.00
2023-05-15T03:22:46.419Z,21.00
2023-05-15T03:23:48.641Z,20.90
2023-05-15T03:24:53.666Z,21.00
2023-05-15T03:25:58.306Z,21.00
2023-05-15T03:27:01.032Z,20.90
2023-05-15T03:28:04.569Z,21.00
2023-05-15T03:29:06.926Z,21.00
2023-05-15T03:30:09.440Z,21.00
2023-05-15T03:31:12.060Z,21.00
2023-05-15T03:32:16.005Z,21.00
2023-05-15T03:33:18.631Z,21.00
2023-05-15T03:34:20.871Z,21.00
2023-05-15T03:35:23.433Z,21.00
2023-05-15T03:36:25.827Z,21.00
2023-05-15T03:37:28.331Z,21.00
2023-05-15T03:38:30.612Z,21.00
2023-05-15T03:39:33.320Z,21.00
2023-05-15T03:40:37.781Z,21.00
2023-05-15T03:41:39.984Z,21.00
2023-05-15T03:42:42.285Z,21.00
2023-05-15T03:43:45.759Z,21.00
2023-05-15T03:44:48.274Z,21.00
2023-05-15T03:45:51.597Z,21.00
2023-05-15T03:46:54.575Z,21.00
2023-05-15T03:47:57.006Z,21.00
2023-05-15T03:48:59.896Z,20.90
2023-05-15T03:50:02.296Z,21.00
2023-05-15T03:51:08.825Z,21.00
2023-05-15T03:52:11.237Z,21.00
2023-05-15T03:53:14.223Z,20.90
2023-05-15T03:54:16.973Z,21.00
2023-05-15T03:55:19.191Z,21.00
2023-05-15T03:56:21.459Z,21.00
2023-05-15T03:57:23.746Z,21.00
2023-05-15T03:58:26.803Z,21.00
2023-05-15T03:59:30.092Z,20.90
2023-05-15T04:00:33.741Z,20.90
2023-05-15T04:01:44.244Z,21.00
2023-05-15T04:02:55.132Z,20.90
2023-05-15T04:03:57.389Z,20.90
2023-05-15T04:04:59.669Z,21.00
2023-05-15T04:06:01.968Z,21.00
2023-05-15T04:07:04.756Z,20.90
2023-05-15T04:08:07.307Z,21.00
2023-05-15T04:09:10.615Z,21.00
2023-05-15T04:10:13.356Z,21.00
2023-05-15T04:11:16.311Z,21.00
2023-05-15T04:12:18.573Z,21.00
2023-05-15T04:13:22.490Z,21.00
2023-05-15T04:14:25.225Z,20.90
2023-05-15T04:15:28.862Z,21.00
2023-05-15T04:16:33.043Z,21.00
2023-05-15T04:17:35.451Z,21.00
2023-05-15T04:18:37.823Z,21.00
2023-05-15T04:19:43.157Z,21.00
2023-05-15T04:20:45.474Z,21.00
2023-05-15T04:21:48.109Z,21.00
2023-05-15T04:22:52.454Z,20.90
2023-05-15T04:23:55.100Z,21.00
2023-05-15T04:24:57.356Z,21.00
2023-05-15T04:25:59.563Z,20.90
2023-05-15T04:27:02.293Z,20.90
2023-05-15T04:28:04.628Z,20.90
2023-05-15T04:29:06.863Z,21.00
2023-05-15T04:30:10.440Z,21.00
2023-05-15T04:31:13.042Z,20.90
2023-05-15T04:32:15.859Z,21.00
2023-05-15T04:33:19.131Z,21.00
2023-05-15T04:34:23.723Z,21.00
2023-05-15T04:35:26.574Z,21.00
2023-05-15T04:36:29.381Z,20.90
2023-05-15T04:37:32.863Z,21.00
2023-05-15T04:38:36.207Z,21.00
2023-05-15T04:39:39.992Z,20.90
2023-05-15T04:40:42.232Z,21.00
2023-05-15T04:41:44.415Z,21.00
2023-05-15T04:42:46.788Z,21.00
2023-05-15T04:43:49.072Z,20.90
2023-05-15T04:44:51.298Z,21.00
2023-05-15T04:45:53.669Z,21.00
2023-05-15T04:46:55.997Z,21.00
2023-05-15T04:48:00.596Z,21.00
2023-05-15T04:49:02.949Z,21.00
2023-05-15T04:50:06.287Z,21.00
2023-05-15T04:51:10.916Z,21.00
2023-05-15T04:52:14.869Z,21.00
2023-05-15T04:53:17.312Z,21.00
2023-05-15T04:54:19.656Z,21.00
2023-05-15T04:55:22.016Z,21.00
2023-05-15T04:56:26.315Z,21.00
2023-05-15T04:57:29.330Z,20.90
2023-05-15T04:58:32.626Z,21.00
2023-05-15T04:59:36.077Z,20.90
2023-05-15T05:00:39.081Z,21.00
2023-05-15T05:01:41.368Z,21.00
2023-05-15T05:02:44.211Z,21.00
2023-05-15T05:03:46.559Z,20.90
2023-05-15T05:04:50.536Z,21.00
2023-05-15T05:05:52.778Z,20.90
2023-05-15T05:06:55.095Z,21.00
2023-05-15T05:08:01.225Z,21.00
2023-05-15T05:09:03.877Z,20.90
2023-05-15T05:10:06.803Z,21.00
2023-05-15T05:11:10.103Z,21.00
2023-05-15T05:12:12.594Z,21.00
2023-05-15T05:13:15.341Z,20.90
2023-05-15T05:14:18.193Z,21.00
2023-05-15T05:15:20.504Z,21.00
2023-05-15T05:16:22.836Z,21.00
2023-05-15T05:17:25.481Z,21.00
2023-05-15T05:18:30.535Z,20.90
2023-05-15T05:19:32.777Z,21.00
2023-05-15T05:20:35.031Z,20.90
2023-05-15T05:21:38.910Z,20.90
2023-05-15T05:22:42.317Z,21.00
2023-05-15T05:23:45.798Z,20.90
2023-05-15T05:24:50.697Z,21.00
2023-05-15T05:25:53.972Z,20.90
2023-05-15T05:26:58.237Z,21.00
2023-05-15T05:28:00.538Z,20.90
2023-05-15T05:29:05.356Z,20.90
2023-05-15T05:30:08.701Z,20.90
2023-05-15T05:31:11.174Z,21.00
2023-05-15T05:32:13.993Z,21.00
2023-05-15T05:33:16.983Z,21.00
2023-05-15T05:34:19.543Z,20.90
2023-05-15T05:35:21.839Z,21.00
2023-05-15T05:36:24.530Z,20.90
2023-05-15T05:37:26.865Z,21.00
2023-05-15T05:38:29.339Z,21.00
2023-05-15T05:39:31.544Z,21.00
2023-05-15T05:40:33.766Z,21.00
2023-05-15T05:41:36.377Z,21.00
2023-05-15T05:42:38.639Z,20.90
2023-05-15T05:43:41.100Z,20.90
2023-05-15T05:44:43.397Z,21.00
2023-05-15T05:45:46.103Z,20.90
2023-05-15T05:46:48.418Z,20.90
2023-05-15T05:47:51.728Z,20.90
2023-05-15T05:48:55.427Z,21.00
2023-05-15T05:49:58.038Z,21.00
2023-05-15T05:51:00.354Z,21.00
2023-05-15T05:52:10.458Z,21.00
2023-05-15T05:53:12.762Z,20.90
2023-05-15T05:54:15.472Z,20.90
2023-05-15T05:55:17.806Z,21.00
2023-05-15T05:56:21.799Z,21.00
2023-05-15T05:57:24.557Z,21.00
2023-05-15T05:58:26.844Z,21.00
2023-05-15T05:59:29.682Z,20.90
2023-05-15T06:00:31.955Z,21.00
2023-05-15T06:01:34.406Z,21.00
2023-05-15T06:02:40.087Z,20.90
2023-05-15T06:03:43.158Z,21.00
2023-05-15T06:04:46.269Z,21.00
2023-05-15T06:05:48.800Z,20.90
2023-05-15T06:06:51.166Z,21.00
2023-05-15T06:07:53.994Z,20.90
2023-05-15T06:08:57.587Z,20.90
2023-05-15T06:10:00.068Z,21.00
2023-05-15T06:11:03.236Z,21.00
2023-05-15T06:12:06.601Z,21.00
2023-05-15T06:13:09.881Z,20.90
2023-05-15T06:14:12.587Z,20.90
2023-05-15T06:15:16.841Z,20.90
2023-05-15T06:16:20.553Z,20.90
2023-05-15T06:17:22.831Z,20.90
2023-05-15T06:18:25.121Z,20.90
2023-05-15T06:19:27.593Z,21.00
2023-05-15T06:20:29.910Z,20.90
2023-05-15T06:21:32.171Z,21.00
2023-05-15T06:22:35.577Z,21.00
2023-05-15T06:23:37.847Z,21.00
2023-05-15T06:24:40.175Z,21.00
2023-05-15T06:25:42.407Z,20.90
2023-05-15T06:26:44.729Z,21.00
2023-05-15T06:27:47.534Z,21.00
2023-05-15T06:28:49.732Z,21.00
2023-05-15T06:29:52.145Z,20.90
2023-05-15T06:30:54.455Z,21.00
2023-05-15T06:31:56.993Z,20.90
2023-05-15T06:32:59.208Z,20.90
2023-05-15T06:34:01.554Z,21.00
2023-05-15T06:35:03.987Z,21.00
2023-05-15T06:36:08.812Z,21.00
2023-05-15T06:37:11.514Z,20.90
2023-05-15T06:38:13.903Z,21.00
2023-05-15T06:39:16.162Z,20.90
2023-05-15T06:40:18.584Z,21.00
2023-05-15T06:41:21.580Z,21.00
2023-05-15T06:42:23.813Z,21.00
2023-05-15T06:43:26.041Z,21.00
2023-05-15T06:44:28.568Z,21.00
2023-05-15T06:45:31.478Z,21.00
2023-05-15T06:46:33.840Z,21.00
2023-05-15T06:47:36.221Z,20.90
2023-05-15T06:48:38.555Z,20.90
2023-05-15T06:49:40.781Z,21.00
2023-05-15T06:50:42.973Z,21.00
2023-05-15T06:51:45.757Z,20.90
2023-05-15T06:52:48.069Z,20.90
2023-05-15T06:53:50.252Z,21.00
2023-05-15T06:54:52.550Z,21.00
2023-05-15T06:55:54.863Z,20.90
2023-05-15T06:56:57.057Z,20.90
2023-05-15T06:57:59.293Z,21.00
2023-05-15T06:59:01.537Z,21.00
2023-05-15T07:00:04.833Z,20.90
2023-05-15T07:01:08.757Z,20.90
2023-05-15T07:02:11.165Z,21.00
2023-05-15T07:03:14.455Z,21.00
2023-05-15T07:04:16.682Z,20.90
2023-05-15T07:05:18.894Z,21.00
2023-05-15T07:06:21.141Z,20.90
2023-05-15T07:07:23.367Z,21.00
2023-05-15T07:08:25.717Z,21.00
2023-05-15T07:09:27.972Z,20.90
2023-05-15T07:10:30.193Z,20.90
2023-05-15T07:11:33.548Z,21.00
2023-05-15T07:12:35.739Z,21.00
2023-05-15T07:13:38.008Z,21.00
2023-05-15T07:14:40.286Z,21.00
2023-05-15T07:15:42.535Z,21.00
2023-05-15T07:16:47.120Z,21.00
2023-05-15T07:17:49.479Z,20.90
2023-05-15T07:18:52.579Z,21.00
2023-05-15T07:19:55.102Z,21.00
2023-05-15T07:20:57.410Z,20.90
2023-05-15T07:22:01.372Z,20.90
2023-05-15T07:23:05.258Z,21.00
2023-05-15T07:24:07.637Z,20.90
2023-05-15T07:25:10.994Z,20.90
2023-05-15T07:26:19.838Z,20.90
2023-05-15T07:27:26.830Z,20.90
2023-05-15T07:28:29.129Z,21.00
2023-05-15T07:29:31.801Z,20.90
2023-05-15T07:30:34.043Z,21.00
2023-05-15T07:31:36.381Z,20.90
2023-05-15T07:32:38.649Z,21.00
2023-05-15T07:33:41.041Z,21.00
2023-05-15T07:34:43.246Z,21.00
2023-05-15T07:35:45.522Z,21.00
2023-05-15T07:36:47.815Z,21.00
2023-05-15T07:37:50.098Z,21.00
2023-05-15T07:38:52.451Z,21.00
2023-05-15T07:39:56.170Z,21.00
2023-05-15T07:40:58.392Z,21.00
2023-05-15T07:42:00.831Z,21.00
2023-05-15T07:43:03.125Z,21.00
2023-05-15T07:44:06.016Z,21.00
2023-05-15T07:45:08.543Z,21.00
2023-05-15T07:46:11.487Z,21.00
2023-05-15T07:47:14.116Z,21.00
2023-05-15T07:48:17.487Z,21.00
2023-05-15T07:49:19.724Z,21.10
2023-05-15T07:50:21.985Z,21.00
2023-05-15T07:51:24.302Z,21.00
2023-05-15T07:52:26.586Z,21.00
2023-05-15T07:53:29.159Z,21.10
2023-05-15T07:54:32.184Z,21.00
2023-05-15T07:55:34.373Z,21.00
2023-05-15T07:56:36.602Z,21.10
2023-05-15T07:57:54.131Z,21.10
2023-05-15T07:58:56.579Z,21.10
2023-05-15T07:59:59.370Z,21.10
2023-05-15T08:01:01.680Z,21.10
2023-05-15T08:02:04.129Z,21.10
2023-05-15T08:03:06.567Z,21.10
2023-05-15T08:04:10.569Z,21.10
2023-05-15T08:05:13.514Z,21.20
2023-05-15T08:06:16.254Z,21.10
2023-05-15T08:07:18.508Z,21.20
2023-05-15T08:08:20.751Z,21.20
2023-05-15T08:09:23.203Z,21.10
2023-05-15T08:10:25.399Z,21.10
2023-05-15T08:11:27.600Z,21.10
2023-05-15T08:12:29.802Z,21.10
2023-05-15T08:13:32.109Z,21.20
2023-05-15T08:14:34.375Z,21.20
2023-05-15T08:15:36.593Z,21.20
2023-05-15T08:16:38.875Z,21.10
2023-05-15T08:17:41.455Z,21.20
2023-05-15T08:18:43.891Z,21.20
2023-05-15T08:19:46.491Z,21.20
2023-05-15T08:20:49.170Z,21.20
2023-05-15T08:21:51.420Z,21.20
2023-05-15T08:22:53.604Z,21.20
2023-05-15T08:23:56.077Z,21.20
2023-05-15T08:24:59.498Z,21.20
2023-05-15T08:26:01.733Z,21.20
2023-05-15T08:27:08.029Z,21.20
2023-05-15T08:28:10.980Z,21.30
2023-05-15T08:29:13.262Z,21.20
2023-05-15T08:30:16.046Z,21.20
2023-05-15T08:31:18.581Z,21.30
2023-05-15T08:32:20.854Z,21.20
2023-05-15T08:33:23.424Z,21.30
2023-05-15T08:34:25.697Z,21.30
2023-05-15T08:35:28.175Z,21.30
2023-05-15T08:36:30.628Z,21.30
2023-05-15T08:37:33.712Z,21.30
2023-05-15T08:38:36.060Z,21.30
2023-05-15T08:39:38.276Z,21.30
2023-05-15T08:40:41.825Z,21.30
2023-05-15T08:41:52.934Z,21.30
2023-05-15T08:42:55.837Z,21.30
2023-05-15T08:43:58.387Z,21.30
2023-05-15T08:45:01.028Z,21.30
2023-05-15T08:46:03.295Z,21.30
2023-05-15T08:47:06.232Z,21.30
2023-05-15T08:48:11.352Z,21.30
2023-05-15T08:49:24.224Z,21.30
2023-05-15T08:50:26.529Z,21.30
2023-05-15T08:51:29.406Z,21.30
2023-05-15T08:52:32.527Z,21.30
2023-05-15T08:53:34.754Z,21.30
2023-05-15T08:54:38.003Z,21.30
2023-05-15T08:55:40.600Z,21.40
2023-05-15T08:56:43.207Z,21.30
2023-05-15T08:57:47.782Z,21.40
2023-05-15T08:58:50.186Z,21.40
2023-05-15T08:59:52.781Z,21.40
2023-05-15T09:00:55.426Z,21.40
2023-05-15T09:01:58.607Z,21.40
2023-05-15T09:03:03.749Z,21.40
2023-05-15T09:04:06.130Z,21.40
2023-05-15T09:05:09.709Z,21.40
2023-05-15T09:06:12.389Z,21.40
2023-05-15T09:07:15.651Z,21.40
2023-05-15T09:08:19.377Z,21.40
2023-05-15T09:09:22.439Z,21.40
2023-05-15T09:10:24.884Z,21.40
2023-05-15T09:11:27.269Z,21.40
2023-05-15T09:12:32.862Z,21.40
2023-05-15T09:13:35.104Z,21.40
2023-05-15T09:14:37.368Z,21.40
2023-05-15T09:15:40.193Z,21.40
2023-05-15T09:16:42.694Z,21.40
2023-05-15T09:17:45.438Z,21.40
2023-05-15T09:18:49.651Z,21.40
2023-05-15T09:19:51.891Z,21.40
2023-05-15T09:20:56.179Z,21.40
2023-05-15T09:22:16.416Z,21.50
2023-05-15T09:23:26.144Z,21.50
2023-05-15T09:24:31.549Z,21.40
2023-05-15T09:25:38.659Z,21.50
2023-05-15T09:26:41.755Z,21.50
2023-05-15T09:27:43.992Z,21.50
2023-05-15T09:28:46.543Z,21.50
2023-05-15T09:29:51.348Z,21.50
2023-05-15T09:30:58.322Z,21.50
2023-05-15T09:32:03.972Z,21.60
2023-05-15T09:33:06.548Z,21.50
2023-05-15T09:34:10.204Z,21.50
2023-05-15T09:35:34.006Z,21.60
2023-05-15T09:36:44.265Z,21.60
2023-05-15T09:37:46.481Z,21.70
2023-05-15T09:38:49.785Z,21.80
2023-05-15T09:39:52.077Z,21.80
2023-05-15T09:41:07.207Z,21.90
2023-05-15T09:42:12.733Z,21.90
2023-05-15T09:43:15.808Z,22.00
2023-05-15T09:44:21.399Z,22.10
2023-05-15T09:45:26.874Z,22.10
2023-05-15T09:46:29.697Z,22.20
2023-05-15T09:47:32.524Z,22.20
2023-05-15T09:48:35.785Z,22.30
2023-05-15T09:49:38.589Z,22.30
2023-05-15T09:50:41.561Z,22.40
2023-05-15T09:51:44.453Z,22.40
2023-05-15T09:52:46.768Z,22.50
2023-05-15T09:53:50.812Z,22.50
2023-05-15T09:54:53.516Z,22.50
2023-05-15T09:55:56.163Z,22.50
2023-05-15T09:57:07.598Z,22.60
2023-05-15T09:58:11.303Z,22.60
2023-05-15T09:59:15.568Z,22.60
2023-05-15T10:00:19.393Z,22.70
2023-05-15T10:01:22.758Z,22.60
2023-05-15T10:02:28.455Z,22.70
2023-05-15T10:03:30.694Z,22.70
2023-05-15T10:04:36.753Z,22.70
2023-05-15T10:05:43.463Z,22.80
2023-05-15T10:06:47.608Z,22.80
2023-05-15T10:07:53.857Z,22.80
2023-05-15T10:08:56.293Z,22.90
2023-05-15T10:09:58.790Z,23.00
2023-05-15T10:11:01.749Z,23.00
2023-05-15T10:12:04.378Z,23.00
2023-05-15T10:13:09.955Z,23.20
2023-05-15T10:14:13.291Z,23.30
2023-05-15T10:15:16.962Z,23.40
2023-05-15T10:16:20.292Z,23.60
2023-05-15T10:17:22.723Z,23.60
2023-05-15T10:18:27.271Z,23.60
2023-05-15T10:19:29.914Z,23.60
2023-05-15T10:20:33.217Z,23.60
2023-05-15T10:21:36.853Z,23.60
2023-05-15T10:22:42.011Z,23.60
2023-05-15T10:23:45.465Z,23.60
2023-05-15T10:24:51.828Z,23.70
2023-05-15T10:25:57.958Z,23.70
2023-05-15T10:27:00.977Z,23.70
2023-05-15T10:28:03.564Z,23.70
2023-05-15T10:29:07.159Z,23.80
2023-05-15T10:30:12.809Z,23.80
2023-05-15T10:31:15.770Z,23.90
2023-05-15T10:32:18.230Z,24.00
2023-05-15T10:33:20.840Z,23.90
2023-05-15T10:34:23.905Z,23.90
2023-05-15T10:35:26.746Z,23.90
2023-05-15T10:36:29.575Z,24.00
2023-05-15T10:37:32.173Z,24.00
2023-05-15T10:38:35.829Z,24.10
2023-05-15T10:39:40.022Z,24.10
2023-05-15T10:40:42.314Z,24.20
2023-05-15T10:41:45.094Z,24.20
2023-05-15T10:42:50.068Z,24.20
2023-05-15T10:43:53.306Z,24.20
2023-05-15T10:44:59.995Z,24.30
2023-05-15T10:46:03.008Z,24.30
2023-05-15T10:47:06.042Z,24.30
2023-05-15T10:48:09.302Z,24.30
2023-05-15T10:49:11.602Z,24.40
2023-05-15T10:50:15.583Z,24.30
2023-05-15T10:51:29.723Z,24.30
2023-05-15T10:52:32.660Z,24.30
2023-05-15T10:53:35.695Z,24.30
2023-05-15T10:54:37.977Z,24.30
2023-05-15T10:55:41.022Z,24.30
2023-05-15T10:56:43.428Z,24.30
2023-05-15T10:57:46.958Z,24.30
2023-05-15T10:58:49.757Z,24.30
2023-05-15T10:59:52.065Z,24.30
2023-05-15T11:00:54.395Z,24.30
2023-05-15T11:01:56.699Z,24.30
2023-05-15T11:02:59.390Z,24.30
2023-05-15T11:04:05.035Z,24.30
2023-05-15T11:05:07.624Z,24.30
2023-05-15T11:06:13.547Z,24.30
2023-05-15T11:07:16.521Z,24.30
2023-05-15T11:08:21.412Z,24.20
2023-05-15T11:09:27.724Z,24.30
2023-05-15T11:10:30.381Z,24.30
2023-05-15T11:11:51.345Z,24.30
2023-05-15T11:12:58.079Z,24.20
2023-05-15T11:14:07.867Z,24.20
2023-05-15T11:15:10.063Z,24.20
2023-05-15T11:16:14.050Z,24.20
2023-05-15T11:17:17.506Z,24.20
2023-05-15T11:18:20.383Z,24.20
2023-05-15T11:19:23.296Z,24.20
2023-05-15T11:20:38.019Z,24.20
2023-05-15T11:21:44.901Z,24.20
2023-05-15T11:22:57.418Z,24.20
2023-05-15T11:24:05.577Z,24.20
2023-05-15T11:25:09.315Z,24.20
2023-05-15T11:26:13.064Z,24.20
2023-05-15T11:27:38.857Z,24.20
2023-05-15T11:28:42.516Z,24.20
2023-05-15T11:30:03.423Z,24.20
2023-05-15T11:31:06.353Z,24.30
2023-05-15T11:32:27.607Z,24.30
2023-05-15T11:33:31.549Z,24.30
2023-05-15T11:34:34.486Z,24.30
2023-05-15T11:35:45.883Z,24.40
2023-05-15T11:36:49.537Z,24.30
2023-05-15T11:37:51.984Z,24.40
2023-05-15T11:38:54.434Z,24.40
2023-05-15T11:39:56.684Z,24.40
2023-05-15T11:41:03.089Z,24.40
2023-05-15T11:42:12.215Z,24.40
2023-05-15T11:43:18.652Z,24.40
2023-05-15T11:44:24.435Z,24.40
2023-05-15T11:45:27.836Z,24.40
2023-05-15T11:46:30.744Z,24.40
2023-05-15T11:47:33.098Z,24.40
2023-05-15T11:48:37.917Z,24.40
2023-05-15T11:49:40.238Z,24.40
2023-05-15T11:50:42.692Z,24.40
2023-05-15T11:51:45.279Z,24.50
2023-05-15T11:52:49.349Z,24.40
2023-05-15T11:53:53.286Z,24.50
2023-05-15T11:54:55.617Z,24.50
2023-05-15T11:55:58.112Z,24.40
2023-05-15T11:57:00.327Z,24.50
2023-05-15T11:58:04.189Z,24.50
2023-05-15T11:59:06.538Z,24.50
2023-05-15T12:00:10.042Z,24.50
2023-05-15T12:01:12.514Z,24.50
2023-05-15T12:02:16.790Z,24.50
2023-05-15T12:03:22.153Z,24.50
2023-05-15T12:04:24.726Z,24.50
2023-05-15T12:05:26.961Z,24.50
2023-05-15T12:06:31.724Z,24.50
2023-05-15T12:07:38.172Z,24.50
2023-05-15T12:08:42.091Z,24.60
2023-05-15T12:09:48.134Z,24.60
2023-05-15T12:10:50.494Z,24.60
2023-05-15T12:11:53.379Z,24.60
2023-05-15T12:12:55.719Z,24.60
2023-05-15T12:13:57.992Z,24.60
2023-05-15T12:15:00.566Z,24.70
2023-05-15T12:16:03.559Z,24.70
2023-05-15T12:17:06.187Z,24.70
2023-05-15T12:18:08.930Z,24.70
2023-05-15T12:19:11.995Z,24.70
2023-05-15T12:20:18.080Z,24.70
2023-05-15T12:21:20.921Z,24.70
2023-05-15T12:22:23.207Z,24.70
2023-05-15T12:23:26.867Z,24.70
2023-05-15T12:24:29.117Z,24.70
2023-05-15T12:25:32.670Z,24.70
2023-05-15T12:26:35.042Z,24.70
2023-05-15T12:27:38.142Z,24.80
2023-05-15T12:28:40.526Z,24.70
2023-05-15T12:29:43.015Z,24.80
2023-05-15T12:30:45.393Z,24.80
2023-05-15T12:31:47.840Z,24.80
2023-05-15T12:32:50.515Z,24.80
2023-05-15T12:33:52.826Z,24.80
2023-05-15T12:34:55.109Z,24.80
2023-05-15T12:36:01.222Z,24.80
2023-05-15T12:37:04.216Z,24.80
2023-05-15T12:38:07.165Z,24.90
2023-05-15T12:39:10.723Z,24.90
2023-05-15T12:40:14.517Z,24.90
2023-05-15T12:41:16.778Z,24.90
2023-05-15T12:42:19.037Z,24.90
2023-05-15T12:43:24.092Z,24.90
2023-05-15T12:44:27.311Z,25.00
2023-05-15T12:45:33.041Z,24.90
2023-05-15T12:46:35.431Z,25.00
2023-05-15T12:47:38.184Z,25.00
2023-05-15T12:48:40.600Z,25.00
2023-05-15T12:49:42.939Z,25.00
2023-05-15T12:50:45.446Z,25.00
2023-05-15T12:51:47.771Z,25.00
2023-05-15T12:52:50.218Z,25.00
2023-05-15T12:53:53.268Z,25.10
2023-05-15T12:54:55.677Z,25.10
2023-05-15T12:55:57.888Z,25.00
2023-05-15T12:57:01.433Z,25.10
2023-05-15T12:58:08.573Z,25.10
2023-05-15T12:59:11.463Z,25.10
2023-05-15T13:00:14.428Z,25.10
2023-05-15T13:01:17.432Z,25.10
2023-05-15T13:02:22.499Z,25.10
2023-05-15T13:03:26.479Z,25.10
2023-05-15T13:04:28.832Z,25.20
2023-05-15T13:05:34.869Z,25.20
2023-05-15T13:06:46.507Z,25.10
2023-05-15T13:07:49.752Z,25.20
2023-05-15T13:08:54.044Z,25.20
2023-05-15T13:10:06.011Z,25.20
2023-05-15T13:11:11.801Z,25.20
2023-05-15T13:12:14.019Z,25.20
2023-05-15T13:13:16.920Z,25.20
2023-05-15T13:14:19.755Z,25.20
2023-05-15T13:15:37.180Z,25.20
2023-05-15T13:16:43.200Z,25.20
2023-05-15T13:17:45.586Z,25.30
2023-05-15T13:18:48.097Z,25.30
2023-05-15T13:19:50.832Z,25.30
2023-05-15T13:20:53.107Z,25.30
2023-05-15T13:21:55.354Z,25.30
2023-05-15T13:22:57.733Z,25.30
2023-05-15T13:24:00.747Z,25.30
2023-05-15T13:25:03.048Z,25.30
2023-05-15T13:26:05.401Z,25.30
2023-05-15T13:27:07.664Z,25.30
2023-05-15T13:28:12.813Z,25.20
2023-05-15T13:29:15.058Z,25.20
2023-05-15T13:30:17.768Z,25.20
2023-05-15T13:31:20.027Z,25.10
2023-05-15T13:32:22.444Z,25.10
2023-05-15T13:33:25.460Z,25.10
2023-05-15T13:34:27.713Z,25.00
2023-05-15T13:35:30.030Z,25.00
2023-05-15T13:36:32.320Z,25.00
2023-05-15T13:37:34.730Z,25.00
2023-05-15T13:38:37.050Z,24.90
2023-05-15T13:39:39.282Z,24.90
2023-05-15T13:40:41.531Z,24.80
2023-05-15T13:41:43.802Z,24.80